sensor_id;sensor_type;location;lat;lon;timestamp;P1;durP1;ratioP1;P2;durP2;ratioP2
69081;SDS011;56184;51.986;5.760;2022-07-06T00:02:13;4.95;;;1.20;;
69081;SDS011;56184;51.986;5.760;2022-07-06T00:04:39;4.50;;;1.30;;
69081;SDS011;56184;51.986;5.760;2022-07-06T00:07:04;3.70;;;1.10;;
69081;SDS011;56184;51.986;5.760;2022-07-06T00:09:34;4.95;;;1.45;;
69081;SDS011;56184;51.986;5.760;2022-07-06T00:11:59;6.07;;;1.40;;
69081;SDS011;56184;51.986;5.760;2022-07-06T00:14:25;5.07;;;1.40;;
69081;SDS011;56184;51.986;5.760;2022-07-06T00:16:51;4.78;;;1.15;;
69081;SDS011;56184;51.986;5.760;2022-07-06T00:19:16;6.30;;;1.05;;
69081;SDS011;56184;51.986;5.760;2022-07-06T00:21:42;5.05;;;1.10;;
69081;SDS011;56184;51.986;5.760;2022-07-06T00:24:07;3.83;;;1.48;;
69081;SDS011;56184;51.986;5.760;2022-07-06T00:26:33;2.50;;;1.30;;
69081;SDS011;56184;51.986;5.760;2022-07-06T00:28:59;3.22;;;1.20;;
69081;SDS011;56184;51.986;5.760;2022-07-06T00:31:24;1.75;;;1.15;;
69081;SDS011;56184;51.986;5.760;2022-07-06T00:33:50;3.15;;;1.05;;
69081;SDS011;56184;51.986;5.760;2022-07-06T00:36:15;3.55;;;1.23;;
69081;SDS011;56184;51.986;5.760;2022-07-06T00:38:41;5.43;;;1.33;;
69081;SDS011;56184;51.986;5.760;2022-07-06T00:41:07;7.15;;;1.27;;
69081;SDS011;56184;51.986;5.760;2022-07-06T00:43:52;2.63;;;1.20;;
69081;SDS011;56184;51.986;5.760;2022-07-06T00:46:26;7.95;;;1.67;;
69081;SDS011;56184;51.986;5.760;2022-07-06T00:48:55;2.88;;;1.23;;
69081;SDS011;56184;51.986;5.760;2022-07-06T00:51:22;4.20;;;1.10;;
69081;SDS011;56184;51.986;5.760;2022-07-06T00:53:53;5.30;;;1.67;;
69081;SDS011;56184;51.986;5.760;2022-07-06T00:56:20;7.43;;;1.42;;
69081;SDS011;56184;51.986;5.760;2022-07-06T00:58:46;5.57;;;1.27;;
69081;SDS011;56184;51.986;5.760;2022-07-06T01:01:12;3.00;;;1.05;;
69081;SDS011;56184;51.986;5.760;2022-07-06T01:03:37;2.50;;;1.13;;
69081;SDS011;56184;51.986;5.760;2022-07-06T01:06:03;4.10;;;1.35;;
69081;SDS011;56184;51.986;5.760;2022-07-06T01:08:28;1.58;;;1.20;;
69081;SDS011;56184;51.986;5.760;2022-07-06T01:10:55;2.88;;;1.30;;
69081;SDS011;56184;51.986;5.760;2022-07-06T01:13:20;4.10;;;1.23;;
69081;SDS011;56184;51.986;5.760;2022-07-06T01:15:46;5.35;;;1.40;;
69081;SDS011;56184;51.986;5.760;2022-07-06T01:18:11;4.72;;;1.55;;
69081;SDS011;56184;51.986;5.760;2022-07-06T01:20:37;2.45;;;1.10;;
69081;SDS011;56184;51.986;5.760;2022-07-06T01:23:03;3.88;;;1.40;;
69081;SDS011;56184;51.986;5.760;2022-07-06T01:25:28;2.17;;;1.30;;
69081;SDS011;56184;51.986;5.760;2022-07-06T01:27:54;2.83;;;1.20;;
69081;SDS011;56184;51.986;5.760;2022-07-06T01:30:20;3.03;;;1.23;;
69081;SDS011;56184;51.986;5.760;2022-07-06T01:32:45;3.97;;;1.30;;
69081;SDS011;56184;51.986;5.760;2022-07-06T01:35:12;4.43;;;1.60;;
69081;SDS011;56184;51.986;5.760;2022-07-06T01:37:39;6.05;;;1.48;;
69081;SDS011;56184;51.986;5.760;2022-07-06T01:40:06;3.53;;;1.40;;
69081;SDS011;56184;51.986;5.760;2022-07-06T01:42:34;7.32;;;1.50;;
69081;SDS011;56184;51.986;5.760;2022-07-06T01:45:00;5.45;;;1.27;;
69081;SDS011;56184;51.986;5.760;2022-07-06T01:47:26;4.93;;;1.67;;
69081;SDS011;56184;51.986;5.760;2022-07-06T01:49:51;2.63;;;1.20;;
69081;SDS011;56184;51.986;5.760;2022-07-06T01:52:17;8.75;;;1.60;;
69081;SDS011;56184;51.986;5.760;2022-07-06T01:54:42;4.13;;;1.23;;
69081;SDS011;56184;51.986;5.760;2022-07-06T01:57:08;2.45;;;1.15;;
69081;SDS011;56184;51.986;5.760;2022-07-06T01:59:34;7.40;;;1.50;;
69081;SDS011;56184;51.986;5.760;2022-07-06T02:01:59;2.92;;;1.20;;
69081;SDS011;56184;51.986;5.760;2022-07-06T02:04:25;3.53;;;1.30;;
69081;SDS011;56184;51.986;5.760;2022-07-06T02:06:51;3.15;;;1.30;;
69081;SDS011;56184;51.986;5.760;2022-07-06T02:09:16;3.03;;;1.30;;
69081;SDS011;56184;51.986;5.760;2022-07-06T02:11:42;7.80;;;1.50;;
69081;SDS011;56184;51.986;5.760;2022-07-06T02:14:08;4.25;;;1.20;;
69081;SDS011;56184;51.986;5.760;2022-07-06T02:16:34;6.93;;;1.80;;
69081;SDS011;56184;51.986;5.760;2022-07-06T02:18:59;3.85;;;1.23;;
69081;SDS011;56184;51.986;5.760;2022-07-06T02:21:25;5.18;;;1.30;;
69081;SDS011;56184;51.986;5.760;2022-07-06T02:23:51;5.00;;;1.20;;
69081;SDS011;56184;51.986;5.760;2022-07-06T02:26:16;5.03;;;1.30;;
69081;SDS011;56184;51.986;5.760;2022-07-06T02:28:42;2.92;;;1.30;;
69081;SDS011;56184;51.986;5.760;2022-07-06T02:31:07;4.30;;;1.17;;
69081;SDS011;56184;51.986;5.760;2022-07-06T02:33:33;4.72;;;1.30;;
69081;SDS011;56184;51.986;5.760;2022-07-06T02:35:58;3.38;;;1.13;;
69081;SDS011;56184;51.986;5.760;2022-07-06T02:38:24;3.85;;;1.30;;
69081;SDS011;56184;51.986;5.760;2022-07-06T02:40:50;3.00;;;1.20;;
69081;SDS011;56184;51.986;5.760;2022-07-06T02:43:15;3.78;;;1.50;;
69081;SDS011;56184;51.986;5.760;2022-07-06T02:45:41;2.70;;;1.20;;
69081;SDS011;56184;51.986;5.760;2022-07-06T02:48:06;3.13;;;1.10;;
69081;SDS011;56184;51.986;5.760;2022-07-06T02:50:32;3.75;;;1.60;;
69081;SDS011;56184;51.986;5.760;2022-07-06T02:52:58;2.80;;;1.13;;
69081;SDS011;56184;51.986;5.760;2022-07-06T02:55:23;2.58;;;1.27;;
69081;SDS011;56184;51.986;5.760;2022-07-06T02:57:49;2.88;;;1.23;;
69081;SDS011;56184;51.986;5.760;2022-07-06T03:00:15;3.70;;;1.20;;
69081;SDS011;56184;51.986;5.760;2022-07-06T03:02:41;4.30;;;1.30;;
69081;SDS011;56184;51.986;5.760;2022-07-06T03:05:07;5.45;;;1.33;;
69081;SDS011;56184;51.986;5.760;2022-07-06T03:07:33;1.95;;;1.23;;
69081;SDS011;56184;51.986;5.760;2022-07-06T03:09:58;5.32;;;1.20;;
69081;SDS011;56184;51.986;5.760;2022-07-06T03:12:24;1.95;;;1.10;;
69081;SDS011;56184;51.986;5.760;2022-07-06T03:14:49;2.80;;;1.17;;
69081;SDS011;56184;51.986;5.760;2022-07-06T03:17:15;2.20;;;1.30;;
69081;SDS011;56184;51.986;5.760;2022-07-06T03:19:40;7.35;;;1.40;;
69081;SDS011;56184;51.986;5.760;2022-07-06T03:22:06;3.67;;;1.30;;
69081;SDS011;56184;51.986;5.760;2022-07-06T03:24:31;2.50;;;1.60;;
69081;SDS011;56184;51.986;5.760;2022-07-06T03:29:28;2.83;;;1.13;;
69081;SDS011;56184;51.986;5.760;2022-07-06T03:31:55;4.25;;;1.40;;
69081;SDS011;56184;51.986;5.760;2022-07-06T03:34:21;6.13;;;1.42;;
69081;SDS011;56184;51.986;5.760;2022-07-06T03:36:46;4.50;;;1.20;;
69081;SDS011;56184;51.986;5.760;2022-07-06T03:39:20;3.15;;;1.13;;
69081;SDS011;56184;51.986;5.760;2022-07-06T03:41:45;5.85;;;1.42;;
69081;SDS011;56184;51.986;5.760;2022-07-06T03:44:11;2.45;;;1.10;;
69081;SDS011;56184;51.986;5.760;2022-07-06T03:46:36;4.10;;;1.38;;
69081;SDS011;56184;51.986;5.760;2022-07-06T03:49:02;3.05;;;1.20;;
69081;SDS011;56184;51.986;5.760;2022-07-06T03:51:27;5.70;;;1.23;;
69081;SDS011;56184;51.986;5.760;2022-07-06T03:53:53;3.22;;;1.10;;
69081;SDS011;56184;51.986;5.760;2022-07-06T03:56:18;3.58;;;1.20;;
69081;SDS011;56184;51.986;5.760;2022-07-06T03:58:53;4.18;;;1.23;;
69081;SDS011;56184;51.986;5.760;2022-07-06T04:01:19;3.75;;;1.10;;
69081;SDS011;56184;51.986;5.760;2022-07-06T04:03:45;4.75;;;1.27;;
69081;SDS011;56184;51.986;5.760;2022-07-06T04:06:11;4.82;;;1.17;;
69081;SDS011;56184;51.986;5.760;2022-07-06T04:08:36;4.30;;;1.10;;
69081;SDS011;56184;51.986;5.760;2022-07-06T04:11:02;1.30;;;0.93;;
69081;SDS011;56184;51.986;5.760;2022-07-06T04:13:28;3.60;;;1.10;;
69081;SDS011;56184;51.986;5.760;2022-07-06T04:15:54;5.85;;;1.33;;
69081;SDS011;56184;51.986;5.760;2022-07-06T04:18:19;5.85;;;1.55;;
69081;SDS011;56184;51.986;5.760;2022-07-06T04:20:45;5.85;;;1.40;;
69081;SDS011;56184;51.986;5.760;2022-07-06T04:23:10;4.68;;;1.30;;
69081;SDS011;56184;51.986;5.760;2022-07-06T04:25:36;2.55;;;1.25;;
69081;SDS011;56184;51.986;5.760;2022-07-06T04:28:02;4.63;;;1.00;;
69081;SDS011;56184;51.986;5.760;2022-07-06T04:30:28;6.97;;;1.08;;
69081;SDS011;56184;51.986;5.760;2022-07-06T04:32:53;2.60;;;1.02;;
69081;SDS011;56184;51.986;5.760;2022-07-06T04:35:20;3.28;;;1.25;;
69081;SDS011;56184;51.986;5.760;2022-07-06T04:37:46;3.88;;;1.45;;
69081;SDS011;56184;51.986;5.760;2022-07-06T04:40:12;7.13;;;1.13;;
69081;SDS011;56184;51.986;5.760;2022-07-06T04:42:38;3.97;;;1.45;;
69081;SDS011;56184;51.986;5.760;2022-07-06T04:45:04;5.53;;;1.30;;
69081;SDS011;56184;51.986;5.760;2022-07-06T04:47:30;4.70;;;1.30;;
69081;SDS011;56184;51.986;5.760;2022-07-06T04:49:55;2.00;;;1.17;;
69081;SDS011;56184;51.986;5.760;2022-07-06T04:52:22;15.73;;;1.55;;
69081;SDS011;56184;51.986;5.760;2022-07-06T04:54:48;3.38;;;1.40;;
69081;SDS011;56184;51.986;5.760;2022-07-06T04:57:13;4.53;;;1.48;;
69081;SDS011;56184;51.986;5.760;2022-07-06T04:59:39;4.05;;;1.42;;
69081;SDS011;56184;51.986;5.760;2022-07-06T05:02:05;8.95;;;1.80;;
69081;SDS011;56184;51.986;5.760;2022-07-06T05:04:30;4.90;;;1.38;;
69081;SDS011;56184;51.986;5.760;2022-07-06T05:06:56;4.35;;;1.30;;
69081;SDS011;56184;51.986;5.760;2022-07-06T05:09:22;5.75;;;1.40;;
69081;SDS011;56184;51.986;5.760;2022-07-06T05:11:47;4.65;;;1.70;;
69081;SDS011;56184;51.986;5.760;2022-07-06T05:14:13;4.10;;;1.25;;
69081;SDS011;56184;51.986;5.760;2022-07-06T05:16:39;4.13;;;1.30;;
69081;SDS011;56184;51.986;5.760;2022-07-06T05:19:04;6.55;;;1.50;;
69081;SDS011;56184;51.986;5.760;2022-07-06T05:21:30;5.47;;;1.08;;
69081;SDS011;56184;51.986;5.760;2022-07-06T05:23:55;1.35;;;1.10;;
69081;SDS011;56184;51.986;5.760;2022-07-06T05:26:21;3.72;;;1.08;;
69081;SDS011;56184;51.986;5.760;2022-07-06T05:28:47;4.57;;;1.45;;
69081;SDS011;56184;51.986;5.760;2022-07-06T05:31:12;4.78;;;1.17;;
69081;SDS011;56184;51.986;5.760;2022-07-06T05:33:39;2.17;;;1.00;;
69081;SDS011;56184;51.986;5.760;2022-07-06T05:36:07;5.43;;;1.23;;
69081;SDS011;56184;51.986;5.760;2022-07-06T05:38:33;6.82;;;1.13;;
69081;SDS011;56184;51.986;5.760;2022-07-06T05:41:00;3.15;;;0.90;;
69081;SDS011;56184;51.986;5.760;2022-07-06T05:43:25;4.85;;;0.93;;
69081;SDS011;56184;51.986;5.760;2022-07-06T05:45:52;3.80;;;1.10;;
69081;SDS011;56184;51.986;5.760;2022-07-06T05:48:19;4.35;;;0.85;;
69081;SDS011;56184;51.986;5.760;2022-07-06T05:51:03;8.57;;;1.00;;
69081;SDS011;56184;51.986;5.760;2022-07-06T05:53:29;3.78;;;0.82;;
69081;SDS011;56184;51.986;5.760;2022-07-06T05:55:54;12.18;;;1.30;;
69081;SDS011;56184;51.986;5.760;2022-07-06T05:58:20;4.22;;;1.00;;
69081;SDS011;56184;51.986;5.760;2022-07-06T06:00:45;4.40;;;1.00;;
69081;SDS011;56184;51.986;5.760;2022-07-06T06:03:11;4.00;;;0.80;;
69081;SDS011;56184;51.986;5.760;2022-07-06T06:05:37;1.60;;;0.90;;
69081;SDS011;56184;51.986;5.760;2022-07-06T06:08:02;3.30;;;1.00;;
69081;SDS011;56184;51.986;5.760;2022-07-06T06:10:28;1.90;;;1.10;;
69081;SDS011;56184;51.986;5.760;2022-07-06T06:12:58;2.90;;;0.90;;
69081;SDS011;56184;51.986;5.760;2022-07-06T06:15:23;6.88;;;1.17;;
69081;SDS011;56184;51.986;5.760;2022-07-06T06:17:49;5.50;;;1.10;;
69081;SDS011;56184;51.986;5.760;2022-07-06T06:20:14;8.20;;;1.30;;
69081;SDS011;56184;51.986;5.760;2022-07-06T06:22:44;4.55;;;1.00;;
69081;SDS011;56184;51.986;5.760;2022-07-06T06:25:12;8.88;;;1.08;;
69081;SDS011;56184;51.986;5.760;2022-07-06T06:27:38;6.40;;;1.08;;
69081;SDS011;56184;51.986;5.760;2022-07-06T06:30:04;7.43;;;1.00;;
69081;SDS011;56184;51.986;5.760;2022-07-06T06:32:30;1.33;;;0.60;;
69081;SDS011;56184;51.986;5.760;2022-07-06T06:34:56;4.63;;;0.80;;
69081;SDS011;56184;51.986;5.760;2022-07-06T06:37:21;1.77;;;0.70;;
69081;SDS011;56184;51.986;5.760;2022-07-06T06:39:47;2.47;;;0.77;;
69081;SDS011;56184;51.986;5.760;2022-07-06T06:42:12;2.63;;;0.80;;
69081;SDS011;56184;51.986;5.760;2022-07-06T06:44:38;1.80;;;0.60;;
69081;SDS011;56184;51.986;5.760;2022-07-06T06:47:03;5.47;;;1.25;;
69081;SDS011;56184;51.986;5.760;2022-07-06T06:49:29;4.80;;;0.93;;
69081;SDS011;56184;51.986;5.760;2022-07-06T06:51:54;6.95;;;0.80;;
69081;SDS011;56184;51.986;5.760;2022-07-06T06:54:20;3.42;;;0.80;;
69081;SDS011;56184;51.986;5.760;2022-07-06T06:56:45;3.28;;;0.70;;
69081;SDS011;56184;51.986;5.760;2022-07-06T06:59:11;3.25;;;0.77;;
69081;SDS011;56184;51.986;5.760;2022-07-06T07:01:36;1.90;;;0.68;;
69081;SDS011;56184;51.986;5.760;2022-07-06T07:04:02;2.75;;;0.70;;
69081;SDS011;56184;51.986;5.760;2022-07-06T07:06:27;3.80;;;0.82;;
69081;SDS011;56184;51.986;5.760;2022-07-06T07:08:53;8.73;;;0.75;;
69081;SDS011;56184;51.986;5.760;2022-07-06T07:11:20;2.47;;;0.90;;
69081;SDS011;56184;51.986;5.760;2022-07-06T07:13:46;7.93;;;0.73;;
69081;SDS011;56184;51.986;5.760;2022-07-06T07:16:11;4.55;;;0.80;;
69081;SDS011;56184;51.986;5.760;2022-07-06T07:18:37;6.78;;;0.80;;
69081;SDS011;56184;51.986;5.760;2022-07-06T07:21:02;3.42;;;0.75;;
69081;SDS011;56184;51.986;5.760;2022-07-06T07:23:28;4.38;;;0.90;;
69081;SDS011;56184;51.986;5.760;2022-07-06T07:25:53;5.22;;;0.70;;
69081;SDS011;56184;51.986;5.760;2022-07-06T07:28:19;5.18;;;0.73;;
69081;SDS011;56184;51.986;5.760;2022-07-06T07:30:45;4.47;;;0.80;;
69081;SDS011;56184;51.986;5.760;2022-07-06T07:33:10;5.05;;;0.90;;
69081;SDS011;56184;51.986;5.760;2022-07-06T07:35:36;3.13;;;0.70;;
69081;SDS011;56184;51.986;5.760;2022-07-06T07:38:01;3.42;;;1.00;;
69081;SDS011;56184;51.986;5.760;2022-07-06T07:40:27;3.28;;;0.65;;
69081;SDS011;56184;51.986;5.760;2022-07-06T07:42:52;3.97;;;0.80;;
69081;SDS011;56184;51.986;5.760;2022-07-06T07:45:18;3.58;;;0.82;;
69081;SDS011;56184;51.986;5.760;2022-07-06T07:47:44;2.10;;;0.60;;
69081;SDS011;56184;51.986;5.760;2022-07-06T07:50:09;2.30;;;0.75;;
69081;SDS011;56184;51.986;5.760;2022-07-06T07:52:35;2.13;;;0.70;;
69081;SDS011;56184;51.986;5.760;2022-07-06T07:55:01;2.08;;;0.57;;
69081;SDS011;56184;51.986;5.760;2022-07-06T07:57:27;5.43;;;0.77;;
69081;SDS011;56184;51.986;5.760;2022-07-06T07:59:52;5.22;;;0.60;;
69081;SDS011;56184;51.986;5.760;2022-07-06T08:02:18;8.25;;;0.90;;
69081;SDS011;56184;51.986;5.760;2022-07-06T08:04:43;6.38;;;0.55;;
69081;SDS011;56184;51.986;5.760;2022-07-06T08:07:09;2.35;;;0.55;;
69081;SDS011;56184;51.986;5.760;2022-07-06T08:09:35;4.40;;;0.65;;
69081;SDS011;56184;51.986;5.760;2022-07-06T08:12:00;1.77;;;0.50;;
69081;SDS011;56184;51.986;5.760;2022-07-06T08:14:26;1.00;;;0.50;;
69081;SDS011;56184;51.986;5.760;2022-07-06T08:16:52;3.00;;;0.55;;
69081;SDS011;56184;51.986;5.760;2022-07-06T08:19:17;1.55;;;0.60;;
69081;SDS011;56184;51.986;5.760;2022-07-06T08:21:43;5.30;;;0.55;;
69081;SDS011;56184;51.986;5.760;2022-07-06T08:24:09;2.42;;;0.60;;
69081;SDS011;56184;51.986;5.760;2022-07-06T08:26:35;2.20;;;0.40;;
69081;SDS011;56184;51.986;5.760;2022-07-06T08:29:01;1.67;;;0.60;;
69081;SDS011;56184;51.986;5.760;2022-07-06T08:31:27;3.83;;;0.52;;
69081;SDS011;56184;51.986;5.760;2022-07-06T08:33:56;4.88;;;0.60;;
69081;SDS011;56184;51.986;5.760;2022-07-06T08:36:21;2.45;;;0.50;;
69081;SDS011;56184;51.986;5.760;2022-07-06T08:38:48;2.05;;;0.43;;
69081;SDS011;56184;51.986;5.760;2022-07-06T08:41:14;2.35;;;0.50;;
69081;SDS011;56184;51.986;5.760;2022-07-06T08:43:41;1.02;;;0.35;;
69081;SDS011;56184;51.986;5.760;2022-07-06T08:46:07;2.47;;;0.47;;
69081;SDS011;56184;51.986;5.760;2022-07-06T08:48:37;2.35;;;0.40;;
69081;SDS011;56184;51.986;5.760;2022-07-06T08:51:04;2.92;;;0.40;;
69081;SDS011;56184;51.986;5.760;2022-07-06T08:53:30;1.55;;;0.43;;
69081;SDS011;56184;51.986;5.760;2022-07-06T08:55:55;3.00;;;0.40;;
69081;SDS011;56184;51.986;5.760;2022-07-06T08:58:23;0.95;;;0.40;;
69081;SDS011;56184;51.986;5.760;2022-07-06T09:00:49;1.75;;;0.40;;
69081;SDS011;56184;51.986;5.760;2022-07-06T09:03:15;1.25;;;0.35;;
69081;SDS011;56184;51.986;5.760;2022-07-06T09:05:41;2.00;;;0.40;;
69081;SDS011;56184;51.986;5.760;2022-07-06T09:08:10;1.92;;;0.70;;
69081;SDS011;56184;51.986;5.760;2022-07-06T09:10:36;2.90;;;0.40;;
69081;SDS011;56184;51.986;5.760;2022-07-06T09:13:05;3.17;;;0.43;;
69081;SDS011;56184;51.986;5.760;2022-07-06T09:15:33;4.65;;;0.32;;
69081;SDS011;56184;51.986;5.760;2022-07-06T09:18:01;1.48;;;0.50;;
69081;SDS011;56184;51.986;5.760;2022-07-06T09:20:28;0.98;;;0.40;;
69081;SDS011;56184;51.986;5.760;2022-07-06T09:22:58;5.40;;;0.45;;
69081;SDS011;56184;51.986;5.760;2022-07-06T09:25:28;3.50;;;0.57;;
69081;SDS011;56184;51.986;5.760;2022-07-06T09:27:56;2.35;;;0.43;;
69081;SDS011;56184;51.986;5.760;2022-07-06T09:30:23;2.38;;;0.50;;
69081;SDS011;56184;51.986;5.760;2022-07-06T09:32:50;2.70;;;0.40;;
69081;SDS011;56184;51.986;5.760;2022-07-06T09:35:21;1.83;;;0.50;;
69081;SDS011;56184;51.986;5.760;2022-07-06T09:40:42;4.40;;;0.50;;
69081;SDS011;56184;51.986;5.760;2022-07-06T09:43:19;1.40;;;0.40;;
69081;SDS011;56184;51.986;5.760;2022-07-06T09:45:53;2.60;;;0.38;;
69081;SDS011;56184;51.986;5.760;2022-07-06T09:48:28;0.98;;;0.38;;
69081;SDS011;56184;51.986;5.760;2022-07-06T09:50:57;1.65;;;0.60;;
69081;SDS011;56184;51.986;5.760;2022-07-06T09:53:27;4.03;;;0.65;;
69081;SDS011;56184;51.986;5.760;2022-07-06T09:56:17;1.67;;;0.40;;
69081;SDS011;56184;51.986;5.760;2022-07-06T09:58:43;0.47;;;0.20;;
69081;SDS011;56184;51.986;5.760;2022-07-06T10:01:09;3.90;;;0.38;;
69081;SDS011;56184;51.986;5.760;2022-07-06T10:03:34;1.00;;;0.40;;
69081;SDS011;56184;51.986;5.760;2022-07-06T10:06:06;2.15;;;0.50;;
69081;SDS011;56184;51.986;5.760;2022-07-06T10:08:32;1.05;;;0.30;;
69081;SDS011;56184;51.986;5.760;2022-07-06T10:10:59;1.50;;;0.43;;
69081;SDS011;56184;51.986;5.760;2022-07-06T10:13:26;1.33;;;0.43;;
69081;SDS011;56184;51.986;5.760;2022-07-06T10:15:53;3.58;;;0.50;;
69081;SDS011;56184;51.986;5.760;2022-07-06T10:18:19;1.70;;;0.43;;
69081;SDS011;56184;51.986;5.760;2022-07-06T10:20:45;3.03;;;0.47;;
69081;SDS011;56184;51.986;5.760;2022-07-06T10:23:13;4.13;;;0.60;;
69081;SDS011;56184;51.986;5.760;2022-07-06T10:25:39;2.15;;;0.55;;
69081;SDS011;56184;51.986;5.760;2022-07-06T10:28:05;3.75;;;0.70;;
69081;SDS011;56184;51.986;5.760;2022-07-06T10:30:40;2.05;;;0.80;;
69081;SDS011;56184;51.986;5.760;2022-07-06T10:33:07;1.23;;;0.60;;
69081;SDS011;56184;51.986;5.760;2022-07-06T10:35:37;5.25;;;0.60;;
69081;SDS011;56184;51.986;5.760;2022-07-06T10:38:07;2.20;;;0.47;;
69081;SDS011;56184;51.986;5.760;2022-07-06T10:40:35;3.72;;;0.90;;
69081;SDS011;56184;51.986;5.760;2022-07-06T10:43:33;4.38;;;0.60;;
69081;SDS011;56184;51.986;5.760;2022-07-06T10:46:21;2.15;;;0.60;;
69081;SDS011;56184;51.986;5.760;2022-07-06T10:48:49;4.40;;;0.50;;
69081;SDS011;56184;51.986;5.760;2022-07-06T10:51:28;3.50;;;0.52;;
69081;SDS011;56184;51.986;5.760;2022-07-06T10:54:00;2.80;;;0.60;;
69081;SDS011;56184;51.986;5.760;2022-07-06T10:56:36;2.05;;;0.50;;
69081;SDS011;56184;51.986;5.760;2022-07-06T10:59:09;3.78;;;0.73;;
69081;SDS011;56184;51.986;5.760;2022-07-06T11:02:10;3.03;;;0.70;;
69081;SDS011;56184;51.986;5.760;2022-07-06T11:04:40;1.23;;;0.57;;
69081;SDS011;56184;51.986;5.760;2022-07-06T11:07:08;2.85;;;0.75;;
69081;SDS011;56184;51.986;5.760;2022-07-06T11:09:35;7.00;;;0.73;;
69081;SDS011;56184;51.986;5.760;2022-07-06T11:12:13;2.03;;;0.60;;
69081;SDS011;56184;51.986;5.760;2022-07-06T11:14:41;1.38;;;0.40;;
69081;SDS011;56184;51.986;5.760;2022-07-06T11:17:09;2.15;;;0.77;;
69081;SDS011;56184;51.986;5.760;2022-07-06T11:19:35;1.85;;;0.55;;
69081;SDS011;56184;51.986;5.760;2022-07-06T11:22:05;1.52;;;0.47;;
69081;SDS011;56184;51.986;5.760;2022-07-06T11:24:33;2.60;;;0.70;;
69081;SDS011;56184;51.986;5.760;2022-07-06T11:27:01;2.38;;;0.60;;
69081;SDS011;56184;51.986;5.760;2022-07-06T11:29:27;3.10;;;0.82;;
69081;SDS011;56184;51.986;5.760;2022-07-06T11:31:55;2.95;;;0.82;;
69081;SDS011;56184;51.986;5.760;2022-07-06T11:34:23;3.80;;;0.60;;
69081;SDS011;56184;51.986;5.760;2022-07-06T11:37:00;1.45;;;0.50;;
69081;SDS011;56184;51.986;5.760;2022-07-06T11:39:28;5.30;;;0.65;;
69081;SDS011;56184;51.986;5.760;2022-07-06T11:41:54;5.38;;;0.80;;
69081;SDS011;56184;51.986;5.760;2022-07-06T11:44:20;2.20;;;0.60;;
69081;SDS011;56184;51.986;5.760;2022-07-06T11:46:46;1.35;;;0.68;;
69081;SDS011;56184;51.986;5.760;2022-07-06T11:49:12;2.30;;;0.60;;
69081;SDS011;56184;51.986;5.760;2022-07-06T11:51:38;2.28;;;0.55;;
69081;SDS011;56184;51.986;5.760;2022-07-06T11:54:12;1.92;;;0.50;;
69081;SDS011;56184;51.986;5.760;2022-07-06T11:56:57;3.50;;;0.80;;
69081;SDS011;56184;51.986;5.760;2022-07-06T11:59:28;3.45;;;0.80;;
69081;SDS011;56184;51.986;5.760;2022-07-06T12:02:01;0.60;;;0.40;;
69081;SDS011;56184;51.986;5.760;2022-07-06T12:04:29;2.72;;;0.50;;
69081;SDS011;56184;51.986;5.760;2022-07-06T12:06:59;1.92;;;0.68;;
69081;SDS011;56184;51.986;5.760;2022-07-06T12:09:29;4.20;;;0.77;;
69081;SDS011;56184;51.986;5.760;2022-07-06T12:11:58;2.08;;;0.70;;
69081;SDS011;56184;51.986;5.760;2022-07-06T12:14:28;2.50;;;0.60;;
69081;SDS011;56184;51.986;5.760;2022-07-06T12:17:02;3.03;;;0.60;;
69081;SDS011;56184;51.986;5.760;2022-07-06T12:19:29;3.30;;;0.80;;
69081;SDS011;56184;51.986;5.760;2022-07-06T12:21:54;3.33;;;0.60;;
69081;SDS011;56184;51.986;5.760;2022-07-06T12:24:22;4.72;;;0.70;;
69081;SDS011;56184;51.986;5.760;2022-07-06T12:26:50;2.60;;;0.52;;
69081;SDS011;56184;51.986;5.760;2022-07-06T12:29:17;2.15;;;0.50;;
69081;SDS011;56184;51.986;5.760;2022-07-06T12:31:43;4.13;;;0.70;;
69081;SDS011;56184;51.986;5.760;2022-07-06T12:34:13;2.95;;;0.60;;
69081;SDS011;56184;51.986;5.760;2022-07-06T12:36:44;2.40;;;0.63;;
69081;SDS011;56184;51.986;5.760;2022-07-06T12:39:21;4.78;;;0.40;;
69081;SDS011;56184;51.986;5.760;2022-07-06T12:41:52;2.53;;;0.50;;
69081;SDS011;56184;51.986;5.760;2022-07-06T12:44:26;1.73;;;0.60;;
69081;SDS011;56184;51.986;5.760;2022-07-06T12:47:01;3.75;;;0.65;;
69081;SDS011;56184;51.986;5.760;2022-07-06T12:49:28;1.90;;;0.55;;
69081;SDS011;56184;51.986;5.760;2022-07-06T12:51:58;1.60;;;0.60;;
69081;SDS011;56184;51.986;5.760;2022-07-06T12:54:26;0.93;;;0.50;;
69081;SDS011;56184;51.986;5.760;2022-07-06T12:57:21;1.60;;;0.50;;
69081;SDS011;56184;51.986;5.760;2022-07-06T13:02:22;2.45;;;0.60;;
69081;SDS011;56184;51.986;5.760;2022-07-06T13:05:02;1.38;;;0.75;;
69081;SDS011;56184;51.986;5.760;2022-07-06T13:07:33;4.10;;;0.70;;
69081;SDS011;56184;51.986;5.760;2022-07-06T13:10:06;0.93;;;0.50;;
69081;SDS011;56184;51.986;5.760;2022-07-06T13:12:34;2.35;;;0.50;;
69081;SDS011;56184;51.986;5.760;2022-07-06T13:15:00;0.85;;;0.50;;
69081;SDS011;56184;51.986;5.760;2022-07-06T13:17:25;0.93;;;0.40;;
69081;SDS011;56184;51.986;5.760;2022-07-06T13:19:51;3.83;;;0.52;;
69081;SDS011;56184;51.986;5.760;2022-07-06T13:22:17;2.15;;;0.63;;
69081;SDS011;56184;51.986;5.760;2022-07-06T13:24:43;2.92;;;0.60;;
69081;SDS011;56184;51.986;5.760;2022-07-06T13:27:09;3.50;;;0.50;;
69081;SDS011;56184;51.986;5.760;2022-07-06T13:29:36;5.50;;;0.70;;
69081;SDS011;56184;51.986;5.760;2022-07-06T13:32:02;3.88;;;0.50;;
69081;SDS011;56184;51.986;5.760;2022-07-06T13:34:31;1.95;;;0.60;;
69081;SDS011;56184;51.986;5.760;2022-07-06T13:36:59;4.45;;;0.65;;
69081;SDS011;56184;51.986;5.760;2022-07-06T13:39:35;2.45;;;0.55;;
69081;SDS011;56184;51.986;5.760;2022-07-06T13:42:01;2.30;;;0.70;;
69081;SDS011;56184;51.986;5.760;2022-07-06T13:44:32;2.28;;;0.50;;
69081;SDS011;56184;51.986;5.760;2022-07-06T13:46:58;6.75;;;0.75;;
69081;SDS011;56184;51.986;5.760;2022-07-06T13:49:24;2.15;;;0.70;;
69081;SDS011;56184;51.986;5.760;2022-07-06T13:51:50;2.55;;;0.68;;
69081;SDS011;56184;51.986;5.760;2022-07-06T13:54:15;2.80;;;0.70;;
69081;SDS011;56184;51.986;5.760;2022-07-06T13:56:41;2.85;;;0.70;;
69081;SDS011;56184;51.986;5.760;2022-07-06T13:59:07;2.10;;;0.50;;
69081;SDS011;56184;51.986;5.760;2022-07-06T14:01:33;1.88;;;0.60;;
69081;SDS011;56184;51.986;5.760;2022-07-06T14:03:58;2.38;;;0.50;;
69081;SDS011;56184;51.986;5.760;2022-07-06T14:06:24;1.38;;;0.52;;
69081;SDS011;56184;51.986;5.760;2022-07-06T14:08:54;1.48;;;0.60;;
69081;SDS011;56184;51.986;5.760;2022-07-06T14:11:34;1.45;;;0.70;;
69081;SDS011;56184;51.986;5.760;2022-07-06T14:14:00;3.10;;;0.73;;
69081;SDS011;56184;51.986;5.760;2022-07-06T14:16:26;1.65;;;0.60;;
69081;SDS011;56184;51.986;5.760;2022-07-06T14:19:01;1.55;;;0.70;;
69081;SDS011;56184;51.986;5.760;2022-07-06T14:21:27;4.75;;;0.70;;
69081;SDS011;56184;51.986;5.760;2022-07-06T14:23:53;5.30;;;0.40;;
69081;SDS011;56184;51.986;5.760;2022-07-06T14:26:19;1.40;;;0.60;;
69081;SDS011;56184;51.986;5.760;2022-07-06T14:28:44;1.95;;;0.50;;
69081;SDS011;56184;51.986;5.760;2022-07-06T14:31:10;3.25;;;0.70;;
69081;SDS011;56184;51.986;5.760;2022-07-06T14:35:18;3.42;;;0.70;;
69081;SDS011;56184;51.986;5.760;2022-07-06T14:37:44;2.10;;;0.70;;
69081;SDS011;56184;51.986;5.760;2022-07-06T14:40:10;6.35;;;0.90;;
69081;SDS011;56184;51.986;5.760;2022-07-06T14:42:36;4.28;;;0.70;;
69081;SDS011;56184;51.986;5.760;2022-07-06T14:45:01;1.55;;;0.52;;
69081;SDS011;56184;51.986;5.760;2022-07-06T14:47:27;1.67;;;0.57;;
69081;SDS011;56184;51.986;5.760;2022-07-06T14:49:52;1.38;;;0.57;;
69081;SDS011;56184;51.986;5.760;2022-07-06T14:52:18;1.95;;;0.68;;
69081;SDS011;56184;51.986;5.760;2022-07-06T14:54:45;2.15;;;0.70;;
69081;SDS011;56184;51.986;5.760;2022-07-06T14:57:10;2.50;;;0.70;;
69081;SDS011;56184;51.986;5.760;2022-07-06T14:59:37;4.18;;;0.52;;